sensor_id;sensor_type;location;lat;lon;timestamp;temperature;humidity
14709;DHT22;7445;50.774;4.944;2022-07-23T00:00:29;17.00;99.90
14709;DHT22;7445;50.774;4.944;2022-07-23T00:02:55;17.10;99.90
14709;DHT22;7445;50.774;4.944;2022-07-23T00:05:21;17.00;99.90
14709;DHT22;7445;50.774;4.944;2022-07-23T00:07:47;16.90;99.90
14709;DHT22;7445;50.774;4.944;2022-07-23T00:10:12;16.90;99.90
14709;DHT22;7445;50.774;4.944;2022-07-23T00:12:39;16.90;99.90
14709;DHT22;7445;50.774;4.944;2022-07-23T00:15:06;16.90;99.90
14709;DHT22;7445;50.774;4.944;2022-07-23T00:17:32;16.90;99.90
14709;DHT22;7445;50.774;4.944;2022-07-23T00:19:57;16.90;99.90
14709;DHT22;7445;50.774;4.944;2022-07-23T00:22:23;16.80;99.90
14709;DHT22;7445;50.774;4.944;2022-07-23T00:24:49;16.70;99.90
14709;DHT22;7445;50.774;4.944;2022-07-23T00:27:15;16.60;99.90
14709;DHT22;7445;50.774;4.944;2022-07-23T00:29:41;16.60;99.90
14709;DHT22;7445;50.774;4.944;2022-07-23T00:32:06;16.60;99.90
14709;DHT22;7445;50.774;4.944;2022-07-23T00:34:32;16.50;99.90
14709;DHT22;7445;50.774;4.944;2022-07-23T00:36:57;16.50;99.90
14709;DHT22;7445;50.774;4.944;2022-07-23T00:39:23;16.60;99.90
14709;DHT22;7445;50.774;4.944;2022-07-23T00:41:50;16.70;99.90
14709;DHT22;7445;50.774;4.944;2022-07-23T00:44:24;16.80;99.90
14709;DHT22;7445;50.774;4.944;2022-07-23T00:46:55;16.80;99.90
14709;DHT22;7445;50.774;4.944;2022-07-23T00:49:22;16.80;99.90
14709;DHT22;7445;50.774;4.944;2022-07-23T00:51:49;16.80;99.90
14709;DHT22;7445;50.774;4.944;2022-07-23T00:54:16;16.70;99.90
14709;DHT22;7445;50.774;4.944;2022-07-23T00:56:43;16.70;99.90
14709;DHT22;7445;50.774;4.944;2022-07-23T00:59:09;16.60;99.90
14709;DHT22;7445;50.774;4.944;2022-07-23T01:01:35;16.60;99.90
14709;DHT22;7445;50.774;4.944;2022-07-23T01:04:01;16.50;99.90
14709;DHT22;7445;50.774;4.944;2022-07-23T01:06:27;16.50;99.90
14709;DHT22;7445;50.774;4.944;2022-07-23T01:08:54;16.60;99.90
14709;DHT22;7445;50.774;4.944;2022-07-23T01:11:21;16.60;99.90
14709;DHT22;7445;50.774;4.944;2022-07-23T01:13:48;16.70;99.90
14709;DHT22;7445;50.774;4.944;2022-07-23T01:16:13;16.70;99.90
14709;DHT22;7445;50.774;4.944;2022-07-23T01:18:39;16.60;99.90
14709;DHT22;7445;50.774;4.944;2022-07-23T01:21:05;16.60;99.90
14709;DHT22;7445;50.774;4.944;2022-07-23T01:23:31;16.60;99.90
14709;DHT22;7445;50.774;4.944;2022-07-23T01:25:57;16.50;99.90
14709;DHT22;7445;50.774;4.944;2022-07-23T01:28:23;16.50;99.90
14709;DHT22;7445;50.774;4.944;2022-07-23T01:30:49;16.50;99.90
14709;DHT22;7445;50.774;4.944;2022-07-23T01:33:15;16.50;99.90
14709;DHT22;7445;50.774;4.944;2022-07-23T01:35:40;16.50;99.90
14709;DHT22;7445;50.774;4.944;2022-07-23T01:38:06;16.40;99.90
14709;DHT22;7445;50.774;4.944;2022-07-23T01:40:32;16.40;99.90
14709;DHT22;7445;50.774;4.944;2022-07-23T01:42:57;16.40;99.90
14709;DHT22;7445;50.774;4.944;2022-07-23T01:45:23;16.40;99.90
14709;DHT22;7445;50.774;4.944;2022-07-23T01:47:49;16.40;99.90
14709;DHT22;7445;50.774;4.944;2022-07-23T01:50:15;16.30;99.90
14709;DHT22;7445;50.774;4.944;2022-07-23T01:52:40;16.30;99.90
14709;DHT22;7445;50.774;4.944;2022-07-23T01:55:07;16.30;99.90
14709;DHT22;7445;50.774;4.944;2022-07-23T01:57:33;16.30;99.90
14709;DHT22;7445;50.774;4.944;2022-07-23T01:59:58;16.40;99.90
14709;DHT22;7445;50.774;4.944;2022-07-23T02:02:24;16.40;99.90
14709;DHT22;7445;50.774;4.944;2022-07-23T02:04:50;16.40;99.90
14709;DHT22;7445;50.774;4.944;2022-07-23T02:07:15;16.40;99.90
14709;DHT22;7445;50.774;4.944;2022-07-23T02:09:41;16.30;99.90
14709;DHT22;7445;50.774;4.944;2022-07-23T02:12:07;16.30;99.90
14709;DHT22;7445;50.774;4.944;2022-07-23T02:14:33;16.20;99.90
14709;DHT22;7445;50.774;4.944;2022-07-23T02:16:58;16.20;99.90
14709;DHT22;7445;50.774;4.944;2022-07-23T02:19:24;16.20;99.90
14709;DHT22;7445;50.774;4.944;2022-07-23T02:21:50;16.20;99.90
14709;DHT22;7445;50.774;4.944;2022-07-23T02:24:16;16.30;99.90
14709;DHT22;7445;50.774;4.944;2022-07-23T02:26:42;16.30;99.90
14709;DHT22;7445;50.774;4.944;2022-07-23T02:29:08;16.20;99.90
14709;DHT22;7445;50.774;4.944;2022-07-23T02:31:34;16.30;99.90
14709;DHT22;7445;50.774;4.944;2022-07-23T02:34:01;16.30;99.90
14709;DHT22;7445;50.774;4.944;2022-07-23T02:36:27;16.20;99.90
14709;DHT22;7445;50.774;4.944;2022-07-23T02:38:52;16.30;99.90
14709;DHT22;7445;50.774;4.944;2022-07-23T02:41:18;16.20;99.90
14709;DHT22;7445;50.774;4.944;2022-07-23T02:43:44;16.20;99.90
14709;DHT22;7445;50.774;4.944;2022-07-23T02:46:10;16.20;99.90
14709;DHT22;7445;50.774;4.944;2022-07-23T02:48:35;16.20;99.90
14709;DHT22;7445;50.774;4.944;2022-07-23T02:51:01;16.20;99.90
14709;DHT22;7445;50.774;4.944;2022-07-23T02:53:26;16.20;99.90
14709;DHT22;7445;50.774;4.944;2022-07-23T02:55:52;16.20;99.90
14709;DHT22;7445;50.774;4.944;2022-07-23T02:58:18;16.20;99.90
14709;DHT22;7445;50.774;4.944;2022-07-23T03:00:43;16.20;99.90
14709;DHT22;7445;50.774;4.944;2022-07-23T03:03:09;16.20;99.90
14709;DHT22;7445;50.774;4.944;2022-07-23T03:05:36;16.10;99.90
14709;DHT22;7445;50.774;4.944;2022-07-23T03:08:02;16.10;99.90
14709;DHT22;7445;50.774;4.944;2022-07-23T03:10:27;16.10;99.90
14709;DHT22;7445;50.774;4.944;2022-07-23T03:12:53;16.10;99.90
14709;DHT22;7445;50.774;4.944;2022-07-23T03:15:18;15.90;99.90
14709;DHT22;7445;50.774;4.944;2022-07-23T03:17:44;15.90;99.90
14709;DHT22;7445;50.774;4.944;2022-07-23T03:20:10;15.80;99.90
14709;DHT22;7445;50.774;4.944;2022-07-23T03:22:36;15.80;99.90
14709;DHT22;7445;50.774;4.944;2022-07-23T03:25:02;15.80;99.90
14709;DHT22;7445;50.774;4.944;2022-07-23T03:27:29;15.80;99.90
14709;DHT22;7445;50.774;4.944;2022-07-23T03:29:56;15.80;99.90
14709;DHT22;7445;50.774;4.944;2022-07-23T03:32:23;15.70;99.90
14709;DHT22;7445;50.774;4.944;2022-07-23T03:34:49;15.70;99.90
14709;DHT22;7445;50.774;4.944;2022-07-23T03:37:15;15.60;99.90
14709;DHT22;7445;50.774;4.944;2022-07-23T03:39:41;15.60;99.90
14709;DHT22;7445;50.774;4.944;2022-07-23T03:42:07;15.60;99.90
14709;DHT22;7445;50.774;4.944;2022-07-23T03:44:33;15.60;99.90
14709;DHT22;7445;50.774;4.944;2022-07-23T03:46:59;15.40;99.90
14709;DHT22;7445;50.774;4.944;2022-07-23T03:49:24;15.40;99.90
14709;DHT22;7445;50.774;4.944;2022-07-23T03:51:50;15.40;99.90
14709;DHT22;7445;50.774;4.944;2022-07-23T03:54:16;15.30;99.90
14709;DHT22;7445;50.774;4.944;2022-07-23T03:56:41;15.40;99.90
14709;DHT22;7445;50.774;4.944;2022-07-23T03:59:08;15.50;99.90
14709;DHT22;7445;50.774;4.944;2022-07-23T04:01:35;15.50;99.90
14709;DHT22;7445;50.774;4.944;2022-07-23T04:04:01;15.40;99.90
14709;DHT22;7445;50.774;4.944;2022-07-23T04:06:27;15.40;99.90
14709;DHT22;7445;50.774;4.944;2022-07-23T04:08:53;15.40;99.90
14709;DHT22;7445;50.774;4.944;2022-07-23T04:11:18;15.40;99.90
14709;DHT22;7445;50.774;4.944;2022-07-23T04:13:44;15.40;99.90
14709;DHT22;7445;50.774;4.944;2022-07-23T04:16:09;15.40;99.90
14709;DHT22;7445;50.774;4.944;2022-07-23T04:18:36;15.40;99.90
14709;DHT22;7445;50.774;4.944;2022-07-23T04:21:02;15.40;99.90
14709;DHT22;7445;50.774;4.944;2022-07-23T04:23:28;15.30;99.90
14709;DHT22;7445;50.774;4.944;2022-07-23T04:25:53;15.40;99.90
14709;DHT22;7445;50.774;4.944;2022-07-23T04:28:19;15.30;99.90
14709;DHT22;7445;50.774;4.944;2022-07-23T04:30:45;15.30;99.90
14709;DHT22;7445;50.774;4.944;2022-07-23T04:33:10;15.30;99.90
14709;DHT22;7445;50.774;4.944;2022-07-23T04:35:36;15.30;99.90
14709;DHT22;7445;50.774;4.944;2022-07-23T04:38:02;15.20;99.90
14709;DHT22;7445;50.774;4.944;2022-07-23T04:40:29;15.20;99.90
14709;DHT22;7445;50.774;4.944;2022-07-23T04:42:56;15.30;99.90
14709;DHT22;7445;50.774;4.944;2022-07-23T04:45:22;15.40;99.90
14709;DHT22;7445;50.774;4.944;2022-07-23T04:47:50;15.50;99.90
14709;DHT22;7445;50.774;4.944;2022-07-23T04:50:15;15.70;99.90
14709;DHT22;7445;50.774;4.944;2022-07-23T04:52:45;15.70;99.90
14709;DHT22;7445;50.774;4.944;2022-07-23T04:55:10;15.80;99.90
14709;DHT22;7445;50.774;4.944;2022-07-23T04:57:36;15.90;99.90
14709;DHT22;7445;50.774;4.944;2022-07-23T05:00:03;15.90;99.90
14709;DHT22;7445;50.774;4.944;2022-07-23T05:02:29;15.90;99.90
14709;DHT22;7445;50.774;4.944;2022-07-23T05:04:55;16.00;99.90
14709;DHT22;7445;50.774;4.944;2022-07-23T05:07:20;16.00;99.90
14709;DHT22;7445;50.774;4.944;2022-07-23T05:09:46;16.10;99.90
14709;DHT22;7445;50.774;4.944;2022-07-23T05:12:11;16.10;99.90
14709;DHT22;7445;50.774;4.944;2022-07-23T05:14:38;16.10;99.90
14709;DHT22;7445;50.774;4.944;2022-07-23T05:17:03;16.20;99.90
14709;DHT22;7445;50.774;4.944;2022-07-23T05:19:29;16.20;99.90
14709;DHT22;7445;50.774;4.944;2022-07-23T05:21:54;16.30;99.90
14709;DHT22;7445;50.774;4.944;2022-07-23T05:24:20;16.30;99.90
14709;DHT22;7445;50.774;4.944;2022-07-23T05:26:46;16.30;99.90
14709;DHT22;7445;50.774;4.944;2022-07-23T05:29:11;16.20;99.90
14709;DHT22;7445;50.774;4.944;2022-07-23T05:31:37;16.20;99.90
14709;DHT22;7445;50.774;4.944;2022-07-23T05:34:03;16.30;99.90
14709;DHT22;7445;50.774;4.944;2022-07-23T05:36:31;16.40;99.90
14709;DHT22;7445;50.774;4.944;2022-07-23T05:38:57;16.50;99.90
14709;DHT22;7445;50.774;4.944;2022-07-23T05:41:22;16.70;99.90
14709;DHT22;7445;50.774;4.944;2022-07-23T05:43:48;16.80;99.90
14709;DHT22;7445;50.774;4.944;2022-07-23T05:46:13;16.80;99.90
14709;DHT22;7445;50.774;4.944;2022-07-23T05:48:39;17.00;99.90
14709;DHT22;7445;50.774;4.944;2022-07-23T05:51:05;17.10;99.90
14709;DHT22;7445;50.774;4.944;2022-07-23T05:53:32;17.10;99.90
14709;DHT22;7445;50.774;4.944;2022-07-23T05:55:58;17.00;99.90
14709;DHT22;7445;50.774;4.944;2022-07-23T05:58:23;17.10;99.90
14709;DHT22;7445;50.774;4.944;2022-07-23T06:00:49;17.30;99.90
14709;DHT22;7445;50.774;4.944;2022-07-23T06:03:16;17.40;99.90
14709;DHT22;7445;50.774;4.944;2022-07-23T06:05:41;17.50;99.90
14709;DHT22;7445;50.774;4.944;2022-07-23T06:08:07;17.60;99.90
14709;DHT22;7445;50.774;4.944;2022-07-23T06:10:33;17.60;99.90
14709;DHT22;7445;50.774;4.944;2022-07-23T06:12:59;17.80;99.90
14709;DHT22;7445;50.774;4.944;2022-07-23T06:15:25;17.80;99.90
14709;DHT22;7445;50.774;4.944;2022-07-23T06:17:50;17.90;99.90
14709;DHT22;7445;50.774;4.944;2022-07-23T06:20:16;17.90;99.90
14709;DHT22;7445;50.774;4.944;2022-07-23T06:22:42;17.90;99.90
14709;DHT22;7445;50.774;4.944;2022-07-23T06:25:07;18.00;99.90
14709;DHT22;7445;50.774;4.944;2022-07-23T06:27:34;18.20;99.90
14709;DHT22;7445;50.774;4.944;2022-07-23T06:29:59;18.30;99.90
14709;DHT22;7445;50.774;4.944;2022-07-23T06:32:25;18.40;99.90
14709;DHT22;7445;50.774;4.944;2022-07-23T06:34:51;18.50;99.90
14709;DHT22;7445;50.774;4.944;2022-07-23T06:37:16;18.60;99.90
14709;DHT22;7445;50.774;4.944;2022-07-23T06:39:42;18.60;99.90
14709;DHT22;7445;50.774;4.944;2022-07-23T06:42:08;18.70;99.90
14709;DHT22;7445;50.774;4.944;2022-07-23T06:44:33;18.70;99.90
14709;DHT22;7445;50.774;4.944;2022-07-23T06:46:59;18.60;99.90
14709;DHT22;7445;50.774;4.944;2022-07-23T06:49:24;18.70;99.90
14709;DHT22;7445;50.774;4.944;2022-07-23T06:51:50;18.80;99.90
14709;DHT22;7445;50.774;4.944;2022-07-23T06:54:15;19.00;99.90
14709;DHT22;7445;50.774;4.944;2022-07-23T06:56:41;19.10;99.90
14709;DHT22;7445;50.774;4.944;2022-07-23T06:59:08;19.20;99.90
14709;DHT22;7445;50.774;4.944;2022-07-23T07:01:35;19.30;99.90
14709;DHT22;7445;50.774;4.944;2022-07-23T07:04:01;19.40;99.90
14709;DHT22;7445;50.774;4.944;2022-07-23T07:06:26;19.50;99.90
14709;DHT22;7445;50.774;4.944;2022-07-23T07:08:52;19.60;99.90
14709;DHT22;7445;50.774;4.944;2022-07-23T07:11:17;19.70;99.90
14709;DHT22;7445;50.774;4.944;2022-07-23T07:13:43;19.80;99.90
14709;DHT22;7445;50.774;4.944;2022-07-23T07:16:09;19.70;99.90
14709;DHT22;7445;50.774;4.944;2022-07-23T07:18:34;19.80;99.90
14709;DHT22;7445;50.774;4.944;2022-07-23T07:21:00;19.90;99.90
14709;DHT22;7445;50.774;4.944;2022-07-23T07:23:26;19.90;99.90
14709;DHT22;7445;50.774;4.944;2022-07-23T07:25:51;20.00;99.90
14709;DHT22;7445;50.774;4.944;2022-07-23T07:28:17;20.20;99.90
14709;DHT22;7445;50.774;4.944;2022-07-23T07:30:42;20.30;99.90
14709;DHT22;7445;50.774;4.944;2022-07-23T07:33:08;20.50;99.90
14709;DHT22;7445;50.774;4.944;2022-07-23T07:35:34;20.70;99.90
14709;DHT22;7445;50.774;4.944;2022-07-23T07:38:00;20.70;99.90
14709;DHT22;7445;50.774;4.944;2022-07-23T07:40:26;20.60;99.90
14709;DHT22;7445;50.774;4.944;2022-07-23T07:42:53;20.60;99.90
14709;DHT22;7445;50.774;4.944;2022-07-23T07:45:20;20.70;99.90
14709;DHT22;7445;50.774;4.944;2022-07-23T07:47:46;20.90;99.90
14709;DHT22;7445;50.774;4.944;2022-07-23T07:50:12;21.10;99.90
14709;DHT22;7445;50.774;4.944;2022-07-23T07:52:37;21.30;99.90
14709;DHT22;7445;50.774;4.944;2022-07-23T07:55:04;21.30;99.90
14709;DHT22;7445;50.774;4.944;2022-07-23T07:57:30;21.30;99.90
14709;DHT22;7445;50.774;4.944;2022-07-23T07:59:56;21.40;99.90
14709;DHT22;7445;50.774;4.944;2022-07-23T08:02:21;21.50;99.90
14709;DHT22;7445;50.774;4.944;2022-07-23T08:04:47;21.40;99.90
14709;DHT22;7445;50.774;4.944;2022-07-23T08:07:14;21.60;99.90
14709;DHT22;7445;50.774;4.944;2022-07-23T08:09:40;21.70;99.90
14709;DHT22;7445;50.774;4.944;2022-07-23T08:12:06;21.80;99.90
14709;DHT22;7445;50.774;4.944;2022-07-23T08:14:31;22.10;99.90
14709;DHT22;7445;50.774;4.944;2022-07-23T08:16:57;22.20;99.90
14709;DHT22;7445;50.774;4.944;2022-07-23T08:19:22;22.00;99.90
14709;DHT22;7445;50.774;4.944;2022-07-23T08:21:48;21.90;99.90
14709;DHT22;7445;50.774;4.944;2022-07-23T08:24:14;21.90;99.90
14709;DHT22;7445;50.774;4.944;2022-07-23T08:26:39;22.00;99.90
14709;DHT22;7445;50.774;4.944;2022-07-23T08:29:06;22.20;99.90
14709;DHT22;7445;50.774;4.944;2022-07-23T08:31:32;22.20;99.90
14709;DHT22;7445;50.774;4.944;2022-07-23T08:34:01;22.20;99.90
14709;DHT22;7445;50.774;4.944;2022-07-23T08:36:28;22.20;99.90
14709;DHT22;7445;50.774;4.944;2022-07-23T08:39:00;22.40;99.90
14709;DHT22;7445;50.774;4.944;2022-07-23T08:41:28;22.30;99.90
14709;DHT22;7445;50.774;4.944;2022-07-23T08:43:54;22.60;99.90
14709;DHT22;7445;50.774;4.944;2022-07-23T08:46:20;22.60;99.90
14709;DHT22;7445;50.774;4.944;2022-07-23T08:48:48;22.90;99.90
14709;DHT22;7445;50.774;4.944;2022-07-23T08:51:14;23.00;99.90
14709;DHT22;7445;50.774;4.944;2022-07-23T08:53:41;22.90;99.90
14709;DHT22;7445;50.774;4.944;2022-07-23T08:56:09;23.10;99.90
14709;DHT22;7445;50.774;4.944;2022-07-23T08:58:35;23.20;99.90
14709;DHT22;7445;50.774;4.944;2022-07-23T09:01:01;23.30;99.90
14709;DHT22;7445;50.774;4.944;2022-07-23T09:03:49;23.50;99.90
14709;DHT22;7445;50.774;4.944;2022-07-23T09:06:15;23.70;99.90
14709;DHT22;7445;50.774;4.944;2022-07-23T09:08:43;23.80;99.90
14709;DHT22;7445;50.774;4.944;2022-07-23T09:11:15;23.80;99.90
14709;DHT22;7445;50.774;4.944;2022-07-23T09:13:51;23.90;99.90
14709;DHT22;7445;50.774;4.944;2022-07-23T09:16:26;23.90;99.90
14709;DHT22;7445;50.774;4.944;2022-07-23T09:18:58;24.20;99.90
14709;DHT22;7445;50.774;4.944;2022-07-23T09:21:33;24.00;99.90
14709;DHT22;7445;50.774;4.944;2022-07-23T09:24:00;24.00;99.90
14709;DHT22;7445;50.774;4.944;2022-07-23T09:26:36;23.90;99.90
14709;DHT22;7445;50.774;4.944;2022-07-23T09:29:20;24.10;99.90
14709;DHT22;7445;50.774;4.944;2022-07-23T09:34:28;24.10;99.90
14709;DHT22;7445;50.774;4.944;2022-07-23T09:36:57;24.30;99.90
14709;DHT22;7445;50.774;4.944;2022-07-23T09:39:31;24.40;99.90
14709;DHT22;7445;50.774;4.944;2022-07-23T09:41:58;24.60;99.90
14709;DHT22;7445;50.774;4.944;2022-07-23T09:44:24;24.90;99.90
14709;DHT22;7445;50.774;4.944;2022-07-23T09:46:50;25.00;99.90
14709;DHT22;7445;50.774;4.944;2022-07-23T09:49:21;25.40;99.90
14709;DHT22;7445;50.774;4.944;2022-07-23T09:51:58;25.50;99.90
14709;DHT22;7445;50.774;4.944;2022-07-23T09:54:26;25.70;99.90
14709;DHT22;7445;50.774;4.944;2022-07-23T09:56:54;25.70;99.90
14709;DHT22;7445;50.774;4.944;2022-07-23T09:59:27;25.90;99.90
14709;DHT22;7445;50.774;4.944;2022-07-23T10:01:55;25.80;99.90
14709;DHT22;7445;50.774;4.944;2022-07-23T10:04:23;25.30;99.90
14709;DHT22;7445;50.774;4.944;2022-07-23T10:06:55;25.10;99.90
14709;DHT22;7445;50.774;4.944;2022-07-23T10:09:25;25.00;99.90
14709;DHT22;7445;50.774;4.944;2022-07-23T10:11:53;25.10;99.90
14709;DHT22;7445;50.774;4.944;2022-07-23T10:14:24;25.10;99.90
14709;DHT22;7445;50.774;4.944;2022-07-23T10:16:50;25.50;99.90
14709;DHT22;7445;50.774;4.944;2022-07-23T10:19:17;25.80;99.90
14709;DHT22;7445;50.774;4.944;2022-07-23T10:21:49;26.20;99.90
14709;DHT22;7445;50.774;4.944;2022-07-23T10:29:57;25.80;99.90
14709;DHT22;7445;50.774;4.944;2022-07-23T10:33:00;26.00;99.90
14709;DHT22;7445;50.774;4.944;2022-07-23T10:35:36;26.40;99.90
14709;DHT22;7445;50.774;4.944;2022-07-23T10:38:20;26.60;99.90
14709;DHT22;7445;50.774;4.944;2022-07-23T10:41:13;26.60;99.90
14709;DHT22;7445;50.774;4.944;2022-07-23T10:43:39;26.50;99.90
14709;DHT22;7445;50.774;4.944;2022-07-23T10:46:24;26.20;99.90
14709;DHT22;7445;50.774;4.944;2022-07-23T10:49:22;26.20;99.90
14709;DHT22;7445;50.774;4.944;2022-07-23T10:54:49;26.80;99.90
14709;DHT22;7445;50.774;4.944;2022-07-23T10:57:21;26.80;99.90
14709;DHT22;7445;50.774;4.944;2022-07-23T11:02:33;27.00;99.90
14709;DHT22;7445;50.774;4.944;2022-07-23T11:05:02;27.00;99.90
14709;DHT22;7445;50.774;4.944;2022-07-23T11:07:29;26.70;99.90
14709;DHT22;7445;50.774;4.944;2022-07-23T11:09:55;26.10;99.90
14709;DHT22;7445;50.774;4.944;2022-07-23T11:17:57;26.50;99.90
14709;DHT22;7445;50.774;4.944;2022-07-23T11:20:25;26.70;99.90
14709;DHT22;7445;50.774;4.944;2022-07-23T11:22:56;27.00;99.90
14709;DHT22;7445;50.774;4.944;2022-07-23T11:25:33;27.20;99.90
14709;DHT22;7445;50.774;4.944;2022-07-23T11:28:16;27.40;99.90
14709;DHT22;7445;50.774;4.944;2022-07-23T11:30:44;27.20;99.90
14709;DHT22;7445;50.774;4.944;2022-07-23T11:35:38;27.00;99.90
14709;DHT22;7445;50.774;4.944;2022-07-23T11:38:21;26.80;99.90
14709;DHT22;7445;50.774;4.944;2022-07-23T11:40:52;27.10;99.90
14709;DHT22;7445;50.774;4.944;2022-07-23T11:43:18;27.30;99.90
14709;DHT22;7445;50.774;4.944;2022-07-23T11:45:49;27.60;99.90
14709;DHT22;7445;50.774;4.944;2022-07-23T11:48:22;27.40;99.90
14709;DHT22;7445;50.774;4.944;2022-07-23T11:50:48;27.40;99.90
14709;DHT22;7445;50.774;4.944;2022-07-23T11:53:28;27.70;99.90
14709;DHT22;7445;50.774;4.944;2022-07-23T11:55:53;28.00;99.90
14709;DHT22;7445;50.774;4.944;2022-07-23T11:58:20;27.90;99.90
14709;DHT22;7445;50.774;4.944;2022-07-23T12:00:46;27.60;99.90
14709;DHT22;7445;50.774;4.944;2022-07-23T12:03:12;27.50;99.90
14709;DHT22;7445;50.774;4.944;2022-07-23T12:05:39;27.20;99.90
14709;DHT22;7445;50.774;4.944;2022-07-23T12:08:07;27.40;99.90
14709;DHT22;7445;50.774;4.944;2022-07-23T12:10:42;27.70;99.90
14709;DHT22;7445;50.774;4.944;2022-07-23T12:13:17;27.90;99.90
14709;DHT22;7445;50.774;4.944;2022-07-23T12:15:44;27.60;99.90
14709;DHT22;7445;50.774;4.944;2022-07-23T12:18:13;27.20;99.90
14709;DHT22;7445;50.774;4.944;2022-07-23T12:20:47;27.40;99.90
14709;DHT22;7445;50.774;4.944;2022-07-23T12:23:15;27.50;99.90
14709;DHT22;7445;50.774;4.944;2022-07-23T12:25:43;27.90;99.90
14709;DHT22;7445;50.774;4.944;2022-07-23T12:28:51;28.30;99.90
14709;DHT22;7445;50.774;4.944;2022-07-23T12:31:05;28.60;99.90
14709;DHT22;7445;50.774;4.944;2022-07-23T12:33:38;29.00;99.90
14709;DHT22;7445;50.774;4.944;2022-07-23T12:36:06;29.10;99.90
14709;DHT22;7445;50.774;4.944;2022-07-23T12:38:46;29.30;99.90
14709;DHT22;7445;50.774;4.944;2022-07-23T12:41:12;29.00;99.90
14709;DHT22;7445;50.774;4.944;2022-07-23T12:43:41;29.10;99.90
14709;DHT22;7445;50.774;4.944;2022-07-23T12:46:12;29.40;99.90
14709;DHT22;7445;50.774;4.944;2022-07-23T12:51:18;29.10;99.90
14709;DHT22;7445;50.774;4.944;2022-07-23T12:53:52;29.00;99.90
14709;DHT22;7445;50.774;4.944;2022-07-23T12:56:22;28.80;99.90
14709;DHT22;7445;50.774;4.944;2022-07-23T12:59:06;28.90;99.90
14709;DHT22;7445;50.774;4.944;2022-07-23T13:01:46;28.90;99.90
14709;DHT22;7445;50.774;4.944;2022-07-23T13:04:21;29.10;99.90
14709;DHT22;7445;50.774;4.944;2022-07-23T13:06:51;29.20;99.90
14709;DHT22;7445;50.774;4.944;2022-07-23T13:09:20;29.50;99.90
14709;DHT22;7445;50.774;4.944;2022-07-23T13:11:48;29.60;99.90
14709;DHT22;7445;50.774;4.944;2022-07-23T13:14:15;29.00;99.90
14709;DHT22;7445;50.774;4.944;2022-07-23T13:16:42;29.40;99.90
14709;DHT22;7445;50.774;4.944;2022-07-23T13:19:08;29.70;99.90
14709;DHT22;7445;50.774;4.944;2022-07-23T13:21:34;29.80;99.90
14709;DHT22;7445;50.774;4.944;2022-07-23T13:24:00;29.90;99.90
14709;DHT22;7445;50.774;4.944;2022-07-23T13:26:26;29.90;99.90
14709;DHT22;7445;50.774;4.944;2022-07-23T13:28:52;29.90;99.90
14709;DHT22;7445;50.774;4.944;2022-07-23T13:31:18;29.90;99.90
14709;DHT22;7445;50.774;4.944;2022-07-23T13:33:44;29.60;99.90
14709;DHT22;7445;50.774;4.944;2022-07-23T13:36:09;29.60;99.90
14709;DHT22;7445;50.774;4.944;2022-07-23T13:38:36;29.40;99.90
14709;DHT22;7445;50.774;4.944;2022-07-23T13:41:03;29.20;99.90
14709;DHT22;7445;50.774;4.944;2022-07-23T13:43:29;29.40;99.90
14709;DHT22;7445;50.774;4.944;2022-07-23T13:45:55;29.50;99.90
14709;DHT22;7445;50.774;4.944;2022-07-23T13:48:21;29.60;99.90
14709;DHT22;7445;50.774;4.944;2022-07-23T13:50:49;29.20;99.90
14709;DHT22;7445;50.774;4.944;2022-07-23T13:53:18;29.30;99.90
14709;DHT22;7445;50.774;4.944;2022-07-23T13:55:45;29.20;99.90
14709;DHT22;7445;50.774;4.944;2022-07-23T13:58:11;29.70;99.90
14709;DHT22;7445;50.774;4.944;2022-07-23T14:00:39;30.20;99.90
14709;DHT22;7445;50.774;4.944;2022-07-23T14:03:05;30.10;99.90
14709;DHT22;7445;50.774;4.944;2022-07-23T14:05:31;30.10;99.90
14709;DHT22;7445;50.774;4.944;2022-07-23T14:07:56;30.30;99.90
14709;DHT22;7445;50.774;4.944;2022-07-23T14:10:23;30.50;99.90
14709;DHT22;7445;50.774;4.944;2022-07-23T14:12:51;30.80;99.90
14709;DHT22;7445;50.774;4.944;2022-07-23T14:15:25;30.90;99.90
14709;DHT22;7445;50.774;4.944;2022-07-23T14:17:52;30.90;99.90
14709;DHT22;7445;50.774;4.944;2022-07-23T14:20:18;30.50;99.90
14709;DHT22;7445;50.774;4.944;2022-07-23T14:22:44;30.60;99.90
14709;DHT22;7445;50.774;4.944;2022-07-23T14:25:10;30.60;99.90
14709;DHT22;7445;50.774;4.944;2022-07-23T14:27:37;30.40;99.90
14709;DHT22;7445;50.774;4.944;2022-07-23T14:30:07;30.50;99.90
14709;DHT22;7445;50.774;4.944;2022-07-23T14:32:33;30.30;99.90
14709;DHT22;7445;50.774;4.944;2022-07-23T14:34:59;30.00;99.90
14709;DHT22;7445;50.774;4.944;2022-07-23T14:37:24;30.00;99.90
14709;DHT22;7445;50.774;4.944;2022-07-23T14:39:51;30.10;99.90
14709;DHT22;7445;50.774;4.944;2022-07-23T14:42:17;29.90;99.90
14709;DHT22;7445;50.774;4.944;2022-07-23T14:44:43;29.70;99.90
14709;DHT22;7445;50.774;4.944;2022-07-23T14:47:10;30.00;99.90
14709;DHT22;7445;50.774;4.944;2022-07-23T14:49:36;30.10;99.90
14709;DHT22;7445;50.774;4.944;2022-07-23T14:52:02;29.80;99.90
14709;DHT22;7445;50.774;4.944;2022-07-23T14:54:29;29.60;99.90
14709;DHT22;7445;50.774;4.944;2022-07-23T14:56:57;29.60;99.90
14709;DHT22;7445;50.774;4.944;2022-07-23T14:59:23;29.40;99.90
14709;DHT22;7445;50.774;4.944;2022-07-23T15:01:49;29.70;99.90
14709;DHT22;7445;50.774;4.944;2022-07-23T15:04:15;30.00;99.90
14709;DHT22;7445;50.774;4.944;2022-07-23T15:06:42;30.10;99.90
14709;DHT22;7445;50.774;4.944;2022-07-23T15:09:09;29.80;99.90
14709;DHT22;7445;50.774;4.944;2022-07-23T15:11:34;29.70;99.90
14709;DHT22;7445;50.774;4.944;2022-07-23T15:14:02;29.90;99.90
14709;DHT22;7445;50.774;4.944;2022-07-23T15:16:28;30.20;99.90
14709;DHT22;7445;50.774;4.944;2022-07-23T15:18:54;29.90;99.90
14709;DHT22;7445;50.774;4.944;2022-07-23T15:21:20;29.70;99.90
14709;DHT22;7445;50.774;4.944;2022-07-23T15:23:46;29.60;99.90
14709;DHT22;7445;50.774;4.944;2022-07-23T15:26:12;29.50;99.90
14709;DHT22;7445;50.774;4.944;2022-07-23T15:28:40;29.80;99.90
14709;DHT22;7445;50.774;4.944;2022-07-23T15:31:06;30.00;99.90
14709;DHT22;7445;50.774;4.944;2022-07-23T15:33:31;30.40;99.90
14709;DHT22;7445;50.774;4.944;2022-07-23T15:35:57;30.40;99.90
14709;DHT22;7445;50.774;4.944;2022-07-23T15:38:25;30.40;99.90
14709;DHT22;7445;50.774;4.944;2022-07-23T15:40:53;30.80;99.90
14709;DHT22;7445;50.774;4.944;2022-07-23T15:43:18;30.90;99.90
14709;DHT22;7445;50.774;4.944;2022-07-23T15:45:44;31.10;99.90
14709;DHT22;7445;50.774;4.944;2022-07-23T15:48:09;31.60;99.90
14709;DHT22;7445;50.774;4.944;2022-07-23T15:50:35;31.80;99.90
14709;DHT22;7445;50.774;4.944;2022-07-23T15:53:01;32.10;99.90
14709;DHT22;7445;50.774;4.944;2022-07-23T15:55:27;32.30;99.90
14709;DHT22;7445;50.774;4.944;2022-07-23T15:57:52;32.60;99.90
